createdAt,value
2017-09-10T00:02:06.067Z,79.10
2017-09-10T00:04:35.919Z,78.93
2017-09-10T00:07:04.294Z,79.29
2017-09-10T00:09:34.015Z,78.96
2017-09-10T00:12:03.210Z,79.00
2017-09-10T00:14:31.587Z,79.54
2017-09-10T00:17:01.405Z,79.44
2017-09-10T00:19:30.096Z,79.86
2017-09-10T00:21:58.440Z,79.89
2017-09-10T00:24:27.079Z,79.86
2017-09-10T00:26:56.152Z,80.46
2017-09-10T00:29:24.524Z,80.86
2017-09-10T00:31:52.863Z,81.04
2017-09-10T00:34:23.046Z,80.83
2017-09-10T00:36:51.385Z,80.88
2017-09-10T00:39:20.574Z,80.10
2017-09-10T00:41:49.690Z,79.64
2017-09-10T00:44:18.024Z,79.36
2017-09-10T00:46:46.393Z,78.96
2017-09-10T00:49:15.358Z,79.52
2017-09-10T00:51:43.707Z,79.19
2017-09-10T00:54:12.106Z,79.04
2017-09-10T00:56:41.743Z,78.72
2017-09-10T00:59:10.065Z,78.72
2017-09-10T01:01:38.418Z,78.95
2017-09-10T01:04:07.027Z,80.39
2017-09-10T01:06:35.405Z,81.47
2017-09-10T01:09:03.761Z,81.58
2017-09-10T01:11:32.905Z,82.41
2017-09-10T01:14:02.055Z,82.04
2017-09-10T01:16:31.551Z,81.75
2017-09-10T01:19:00.246Z,81.31
2017-09-10T01:21:29.497Z,80.95
2017-09-10T01:23:57.883Z,80.62
2017-09-10T01:26:26.499Z,80.48
2017-09-10T01:28:54.873Z,80.54
2017-09-10T01:31:23.222Z,80.62
2017-09-10T01:33:52.318Z,80.38
2017-09-10T01:36:21.388Z,80.10
2017-09-10T01:38:49.738Z,79.99
2017-09-10T01:41:18.385Z,79.99
2017-09-10T01:43:46.724Z,80.42
2017-09-10T01:46:15.592Z,80.20
2017-09-10T01:48:44.256Z,79.11
2017-09-10T01:51:12.595Z,78.87
2017-09-10T01:53:41.690Z,79.09
2017-09-10T01:56:10.602Z,78.76
2017-09-10T01:58:38.959Z,78.60
2017-09-10T02:01:07.324Z,78.29
2017-09-10T02:03:36.185Z,78.57
2017-09-10T02:06:05.136Z,79.45
2017-09-10T02:08:33.538Z,80.18
2017-09-10T02:11:02.165Z,80.50
2017-09-10T02:13:30.490Z,80.46
2017-09-10T02:16:00.028Z,80.08
2017-09-10T02:18:29.098Z,79.59
2017-09-10T02:20:58.533Z,79.17
2017-09-10T02:23:26.874Z,78.61
2017-09-10T02:25:56.519Z,78.58
2017-09-10T02:28:24.910Z,78.50
2017-09-10T02:30:53.303Z,78.17
2017-09-10T02:33:22.315Z,78.39
2017-09-10T02:35:50.711Z,77.77
2017-09-10T02:38:20.149Z,77.81
2017-09-10T02:40:49.536Z,77.23
2017-09-10T02:43:17.880Z,78.03
2017-09-10T02:45:47.066Z,77.93
2017-09-10T02:48:16.409Z,77.04
2017-09-10T02:50:44.823Z,77.72
2017-09-10T02:53:13.166Z,78.79
2017-09-10T02:55:42.023Z,79.14
2017-09-10T02:58:10.358Z,79.18
2017-09-10T03:00:39.527Z,78.68
2017-09-10T03:03:08.216Z,78.61
2017-09-10T03:05:37.355Z,79.21
2017-09-10T03:08:06.644Z,79.44
2017-09-10T03:10:35.563Z,79.57
2017-09-10T03:13:03.919Z,79.88
2017-09-10T03:15:32.697Z,79.46
2017-09-10T03:18:01.864Z,78.84
2017-09-10T03:20:30.222Z,78.61
2017-09-10T03:22:58.686Z,78.84
2017-09-10T03:25:27.616Z,78.94
2017-09-10T03:27:55.960Z,78.80
2017-09-10T03:30:25.085Z,78.93
2017-09-10T03:32:54.271Z,80.12
2017-09-10T03:35:23.485Z,80.40
2017-09-10T03:37:51.827Z,79.85
2017-09-10T03:40:20.510Z,80.60
2017-09-10T03:42:48.965Z,81.36
2017-09-10T03:45:17.341Z,81.39
2017-09-10T03:47:46.184Z,82.22
2017-09-10T03:50:15.321Z,81.84
2017-09-10T03:52:43.667Z,82.39
2017-09-10T03:55:12.598Z,81.68
2017-09-10T03:57:41.636Z,81.53
2017-09-10T04:00:09.993Z,80.51
2017-09-10T04:02:40.443Z,80.48
2017-09-10T04:05:08.803Z,80.41
2017-09-10T04:07:37.172Z,80.42
2017-09-10T04:10:06.610Z,80.26
2017-09-10T04:12:34.954Z,80.28
2017-09-10T04:15:04.283Z,80.80
2017-09-10T04:17:33.387Z,80.46
2017-09-10T04:20:01.721Z,79.95
2017-09-10T04:22:31.225Z,80.29
2017-09-10T04:24:59.966Z,81.27
2017-09-10T04:27:28.934Z,80.14
2017-09-10T04:29:57.287Z,79.60
2017-09-10T04:32:27.352Z,80.42
2017-09-10T04:34:56.587Z,80.60
2017-09-10T04:37:24.953Z,81.14
2017-09-10T04:39:53.817Z,81.01
2017-09-10T04:42:22.168Z,81.35
2017-09-10T04:44:50.529Z,81.85
2017-09-10T04:47:19.249Z,82.53
2017-09-10T04:49:47.637Z,82.67
2017-09-10T04:52:16.202Z,81.60
2017-09-10T04:54:45.429Z,81.22
2017-09-10T04:57:13.782Z,81.85
2017-09-10T04:59:42.152Z,81.55
2017-09-10T05:02:10.918Z,81.48
2017-09-10T05:04:39.970Z,81.12
2017-09-10T05:07:08.996Z,81.11
2017-09-10T05:09:37.886Z,80.65
2017-09-10T05:12:06.822Z,81.18
2017-09-10T05:14:35.358Z,81.42
2017-09-10T05:17:04.147Z,81.68
2017-09-10T05:19:33.202Z,81.33
2017-09-10T05:22:01.553Z,81.70
2017-09-10T05:24:30.235Z,81.64
2017-09-10T05:26:58.578Z,82.10
2017-09-10T05:29:31.032Z,81.69
2017-09-10T05:32:00.451Z,81.62
2017-09-10T05:34:28.790Z,80.76
2017-09-10T05:36:58.722Z,80.89
2017-09-10T05:39:27.823Z,80.67
2017-09-10T05:41:57.095Z,81.17
2017-09-10T05:44:25.591Z,80.58
2017-09-10T05:46:54.219Z,80.49
2017-09-10T05:49:23.581Z,79.31
2017-09-10T05:51:51.959Z,79.09
2017-09-10T05:54:20.794Z,79.42
2017-09-10T05:56:49.148Z,79.21
2017-09-10T05:59:18.242Z,79.02
2017-09-10T06:01:46.925Z,79.53
2017-09-10T06:04:17.454Z,79.85
2017-09-10T06:06:46.463Z,80.49
2017-09-10T06:09:15.199Z,80.55
2017-09-10T06:11:43.545Z,80.58
2017-09-10T06:14:11.896Z,81.02
2017-09-10T06:16:41.401Z,80.18
2017-09-10T06:19:09.754Z,79.74
2017-09-10T06:21:38.115Z,79.49
2017-09-10T06:24:07.977Z,79.76
2017-09-10T06:26:36.331Z,80.37
2017-09-10T06:29:04.734Z,80.12
2017-09-10T06:31:34.373Z,79.72
2017-09-10T06:34:02.746Z,78.78
2017-09-10T06:36:31.126Z,79.17
2017-09-10T06:38:59.754Z,80.18
2017-09-10T06:41:29.145Z,81.02
2017-09-10T06:43:57.500Z,80.26
2017-09-10T06:46:26.290Z,80.39
2017-09-10T06:48:54.655Z,80.21
2017-09-10T06:51:23.060Z,81.37
2017-09-10T06:53:53.475Z,81.34
2017-09-10T06:56:21.845Z,80.85
2017-09-10T06:58:50.184Z,81.15
2017-09-10T07:01:19.003Z,80.80
2017-09-10T07:03:47.383Z,80.67
2017-09-10T07:06:16.510Z,80.88
2017-09-10T07:08:45.731Z,80.61
2017-09-10T07:11:14.383Z,79.47
2017-09-10T07:13:43.094Z,80.39
2017-09-10T07:16:12.427Z,80.48
2017-09-10T07:18:40.802Z,80.58
2017-09-10T07:21:10.202Z,80.56
2017-09-10T07:23:39.948Z,81.33
2017-09-10T07:26:08.314Z,81.49
2017-09-10T07:28:36.708Z,82.00
2017-09-10T07:31:06.321Z,81.93
2017-09-10T07:33:37.202Z,82.59
2017-09-10T07:36:06.149Z,83.81
2017-09-10T07:38:34.774Z,82.46
2017-09-10T07:41:03.696Z,82.94
2017-09-10T07:43:32.044Z,81.08
2017-09-10T07:46:00.699Z,81.23
2017-09-10T07:48:29.648Z,80.03
2017-09-10T07:50:59.383Z,78.93
2017-09-10T07:53:29.560Z,78.80
2017-09-10T07:55:57.899Z,77.99
2017-09-10T07:58:26.256Z,77.86
2017-09-10T08:00:54.922Z,78.19
2017-09-10T08:03:23.365Z,77.72
2017-09-10T08:05:52.080Z,77.53
2017-09-10T08:08:20.935Z,78.36
2017-09-10T08:10:49.849Z,78.39
2017-09-10T08:13:19.166Z,77.09
2017-09-10T08:15:48.212Z,79.03
2017-09-10T08:18:18.428Z,78.47
2017-09-10T08:20:48.454Z,77.12
2017-09-10T08:23:17.099Z,75.68
2017-09-10T08:25:45.472Z,74.85
2017-09-10T08:28:14.042Z,77.04
2017-09-10T08:30:42.996Z,75.98
2017-09-10T08:33:11.347Z,76.14
2017-09-10T08:35:41.083Z,74.82
2017-09-10T08:38:09.790Z,72.63
2017-09-10T08:40:38.131Z,70.10
2017-09-10T08:43:07.390Z,67.42
2017-09-10T08:45:36.032Z,67.59
2017-09-10T08:48:05.267Z,65.87
2017-09-10T08:50:33.624Z,66.09
2017-09-10T08:53:02.424Z,65.36
2017-09-10T08:55:31.494Z,67.30
2017-09-10T08:57:59.906Z,67.64
2017-09-10T09:00:28.650Z,67.45
2017-09-10T09:02:57.018Z,63.62
2017-09-10T09:05:25.374Z,65.09
2017-09-10T09:07:54.034Z,66.38
2017-09-10T09:10:22.425Z,61.80
2017-09-10T09:12:52.283Z,57.00
2017-09-10T09:15:21.007Z,50.43
2017-09-10T09:17:50.134Z,49.34
2017-09-10T09:20:19.233Z,48.38
2017-09-10T09:22:48.095Z,46.90
2017-09-10T09:25:16.906Z,43.70
2017-09-10T09:27:45.790Z,41.15
2017-09-10T09:30:14.584Z,43.83
2017-09-10T09:32:42.980Z,46.00
2017-09-10T09:35:11.908Z,46.31
2017-09-10T09:37:42.536Z,50.76
2017-09-10T09:40:11.649Z,50.54
2017-09-10T09:42:39.994Z,51.63
2017-09-10T09:45:08.821Z,54.27
2017-09-10T09:47:37.189Z,56.61
2017-09-10T09:50:07.329Z,58.41
2017-09-10T09:52:36.981Z,52.48
2017-09-10T09:55:05.334Z,44.53
2017-09-10T09:57:33.678Z,47.92
2017-09-10T10:00:02.351Z,46.79
2017-09-10T10:02:31.462Z,41.10
2017-09-10T10:04:59.822Z,40.29
2017-09-10T10:07:29.382Z,39.81
2017-09-10T10:09:58.668Z,36.06
2017-09-10T10:12:27.376Z,34.87
2017-09-10T10:14:56.229Z,32.37
2017-09-10T10:17:25.386Z,33.11
2017-09-10T10:19:53.737Z,32.91
2017-09-10T10:22:22.702Z,31.40
2017-09-10T10:24:51.074Z,36.72
2017-09-10T10:27:19.439Z,31.72
2017-09-10T10:29:48.997Z,32.25
2017-09-10T10:32:17.362Z,29.06
2017-09-10T10:34:46.335Z,26.94
2017-09-10T10:37:15.082Z,32.64
2017-09-10T10:39:43.440Z,30.50
2017-09-10T10:42:12.586Z,36.00
2017-09-10T10:44:41.277Z,36.55
2017-09-10T10:47:10.418Z,38.24
2017-09-10T10:49:38.793Z,35.57
2017-09-10T10:52:07.797Z,32.11
2017-09-10T10:54:36.147Z,31.95
2017-09-10T10:57:05.961Z,33.05
2017-09-10T10:59:34.879Z,30.83
2017-09-10T11:02:03.816Z,31.07
2017-09-10T11:04:32.954Z,29.92
2017-09-10T11:07:01.701Z,31.60
2017-09-10T11:09:31.798Z,34.54
2017-09-10T11:12:00.200Z,35.78
2017-09-10T11:14:30.879Z,32.31
2017-09-10T11:16:59.224Z,30.46
2017-09-10T11:19:27.558Z,30.03
2017-09-10T11:21:56.308Z,28.23
2017-09-10T11:24:24.644Z,28.54
2017-09-10T11:26:55.028Z,29.78
2017-09-10T11:29:23.984Z,29.65
2017-09-10T11:31:52.355Z,30.93
2017-09-10T11:34:22.512Z,32.51
2017-09-10T11:36:51.474Z,35.18
2017-09-10T11:39:19.843Z,32.34
2017-09-10T11:41:48.984Z,29.93
2017-09-10T11:44:18.770Z,25.77
2017-09-10T11:46:47.280Z,24.44
2017-09-10T11:49:15.692Z,22.54
2017-09-10T11:51:44.343Z,20.93
2017-09-10T11:54:13.592Z,24.10
2017-09-10T11:56:41.962Z,25.01
2017-09-10T11:59:10.744Z,28.80
2017-09-10T12:01:39.771Z,28.58
2017-09-10T12:04:08.107Z,24.49
2017-09-10T12:06:36.738Z,22.47
2017-09-10T12:09:05.993Z,19.79
2017-09-10T12:11:34.344Z,23.43
2017-09-10T12:14:03.261Z,24.93
2017-09-10T12:16:32.248Z,30.33
2017-09-10T12:19:01.360Z,34.14
2017-09-10T12:21:30.525Z,33.32
2017-09-10T12:23:58.877Z,32.72
2017-09-10T12:26:27.999Z,30.40
2017-09-10T12:28:56.785Z,27.84
2017-09-10T12:31:25.774Z,29.03
2017-09-10T12:33:54.110Z,31.21
2017-09-10T12:36:23.563Z,28.35
2017-09-10T12:38:51.932Z,29.60
2017-09-10T12:41:21.053Z,35.76
2017-09-10T12:43:49.739Z,37.97
2017-09-10T12:46:18.085Z,34.59
2017-09-10T12:48:47.185Z,29.58
2017-09-10T12:51:15.783Z,26.73
2017-09-10T12:53:44.113Z,24.71
2017-09-10T12:56:12.454Z,25.95
2017-09-10T12:58:41.226Z,28.08
2017-09-10T13:01:09.579Z,29.65
2017-09-10T13:03:38.704Z,34.13
2017-09-10T13:06:07.885Z,36.87
2017-09-10T13:08:36.235Z,37.35
2017-09-10T13:11:04.628Z,33.20
2017-09-10T13:13:34.921Z,32.89
2017-09-10T13:16:03.317Z,31.09
2017-09-10T13:18:32.509Z,31.11
2017-09-10T13:21:01.141Z,28.48
2017-09-10T13:23:29.514Z,26.62
2017-09-10T13:25:57.893Z,27.87
2017-09-10T13:28:27.499Z,31.02
2017-09-10T13:30:55.913Z,30.12
2017-09-10T13:33:24.260Z,29.53
2017-09-10T13:35:52.875Z,30.82
2017-09-10T13:38:22.379Z,31.57
2017-09-10T13:40:50.724Z,30.20
2017-09-10T13:43:19.847Z,29.91
2017-09-10T13:45:48.205Z,34.36
2017-09-10T13:48:18.035Z,35.18
2017-09-10T13:50:47.077Z,36.95
2017-09-10T13:53:15.453Z,38.32
2017-09-10T13:55:45.229Z,35.47
2017-09-10T13:58:14.544Z,34.14
2017-09-10T14:00:43.522Z,32.89
2017-09-10T14:03:12.769Z,34.12
2017-09-10T14:05:41.463Z,38.13
2017-09-10T14:08:09.838Z,36.15
2017-09-10T14:10:38.255Z,35.50
2017-09-10T14:13:07.213Z,36.81
2017-09-10T14:15:35.592Z,38.67
2017-09-10T14:18:03.954Z,40.79
2017-09-10T14:20:32.616Z,39.87
2017-09-10T14:23:00.980Z,39.24
2017-09-10T14:25:29.591Z,39.27
2017-09-10T14:27:58.446Z,39.07
2017-09-10T14:30:26.806Z,39.80
2017-09-10T14:32:55.921Z,40.20
2017-09-10T14:35:24.974Z,40.65
2017-09-10T14:37:53.623Z,40.18
2017-09-10T14:40:21.997Z,38.89
2017-09-10T14:42:50.767Z,39.55
2017-09-10T14:45:19.180Z,39.51
2017-09-10T14:47:47.526Z,39.96
2017-09-10T14:50:16.216Z,41.42
2017-09-10T14:52:44.563Z,42.92
2017-09-10T14:55:14.398Z,42.43
2017-09-10T14:57:43.279Z,45.01
2017-09-10T15:00:12.393Z,44.29
2017-09-10T15:02:40.834Z,46.31
2017-09-10T15:05:10.399Z,47.89
2017-09-10T15:07:39.562Z,47.88
2017-09-10T15:10:08.012Z,47.98
2017-09-10T15:12:36.929Z,47.71
2017-09-10T15:15:05.289Z,48.21
2017-09-10T15:17:33.642Z,47.78
2017-09-10T15:20:02.501Z,47.11
2017-09-10T15:22:30.878Z,46.95
2017-09-10T15:25:00.016Z,47.79
2017-09-10T15:27:29.599Z,48.32
2017-09-10T15:30:00.659Z,47.68
2017-09-10T15:32:29.107Z,48.05
2017-09-10T15:34:58.663Z,47.32
2017-09-10T15:37:27.025Z,47.99
2017-09-10T15:39:55.395Z,48.09
2017-09-10T15:42:24.767Z,48.35
2017-09-10T15:44:53.118Z,48.55
2017-09-10T15:47:21.473Z,47.81
2017-09-10T15:49:50.123Z,47.67
2017-09-10T15:52:18.477Z,48.69
2017-09-10T15:54:48.267Z,48.43
2017-09-10T15:57:17.550Z,48.06
2017-09-10T15:59:46.289Z,47.86
2017-09-10T16:02:16.267Z,48.59
2017-09-10T16:04:45.606Z,48.29
2017-09-10T16:07:13.947Z,48.80
2017-09-10T16:09:42.298Z,50.69
2017-09-10T16:12:10.934Z,50.74
2017-09-10T16:14:39.471Z,50.93
2017-09-10T16:17:09.355Z,51.27
2017-09-10T16:19:37.985Z,50.42
2017-09-10T16:22:06.325Z,50.47
2017-09-10T16:24:34.688Z,50.81
2017-09-10T16:27:04.612Z,51.21
2017-09-10T16:29:32.991Z,51.37
2017-09-10T16:32:01.399Z,51.39
2017-09-10T16:34:30.322Z,52.19
2017-09-10T16:36:58.669Z,52.07
2017-09-10T16:39:27.013Z,51.88
2017-09-10T16:41:55.703Z,52.57
2017-09-10T16:44:24.039Z,52.88
2017-09-10T16:46:52.389Z,53.09
2017-09-10T16:49:21.311Z,53.66
2017-09-10T16:51:50.391Z,54.66
2017-09-10T16:54:18.734Z,54.28
2017-09-10T16:56:47.423Z,54.53
2017-09-10T16:59:15.815Z,55.61
2017-09-10T17:01:44.185Z,56.05
2017-09-10T17:04:13.055Z,55.31
2017-09-10T17:06:41.399Z,56.08
2017-09-10T17:09:09.771Z,56.07
2017-09-10T17:11:39.128Z,56.29
2017-09-10T17:14:10.444Z,57.54
2017-09-10T17:16:38.841Z,57.34
2017-09-10T17:19:07.534Z,56.78
2017-09-10T17:21:35.931Z,57.32
2017-09-10T17:24:04.369Z,57.26
2017-09-10T17:26:32.990Z,57.01
2017-09-10T17:29:02.400Z,58.04
2017-09-10T17:31:30.746Z,58.28
2017-09-10T17:34:00.471Z,58.48
2017-09-10T17:36:29.519Z,58.52
2017-09-10T17:38:57.876Z,58.58
2017-09-10T17:41:27.286Z,59.16
2017-09-10T17:43:56.702Z,58.75
2017-09-10T17:46:25.124Z,59.07
2017-09-10T17:48:54.544Z,58.83
2017-09-10T17:51:23.629Z,58.93
2017-09-10T17:53:52.060Z,59.84
2017-09-10T17:56:21.849Z,59.93
2017-09-10T17:58:50.414Z,60.26
2017-09-10T18:01:18.782Z,60.31
2017-09-10T18:03:48.362Z,60.67
2017-09-10T18:06:16.943Z,60.41
2017-09-10T18:08:45.969Z,60.77
2017-09-10T18:11:14.711Z,61.71
2017-09-10T18:13:43.723Z,62.14
2017-09-10T18:16:12.149Z,62.19
2017-09-10T18:18:40.958Z,63.34
2017-09-10T18:21:09.438Z,63.21
2017-09-10T18:23:38.551Z,63.93
2017-09-10T18:26:07.364Z,64.21
2017-09-10T18:28:35.983Z,64.39
2017-09-10T18:31:04.475Z,64.58
2017-09-10T18:33:34.169Z,64.86
2017-09-10T18:36:02.600Z,64.74
2017-09-10T18:38:31.752Z,64.87
2017-09-10T18:41:00.860Z,64.72
2017-09-10T18:43:29.940Z,64.51
2017-09-10T18:45:58.318Z,65.40
2017-09-10T18:48:27.065Z,65.05
2017-09-10T18:50:55.538Z,64.84
2017-09-10T18:53:24.913Z,65.79
2017-09-10T18:55:58.625Z,66.11
2017-09-10T18:58:28.813Z,65.68
2017-09-10T19:00:57.404Z,66.20
2017-09-10T19:03:27.082Z,66.18
2017-09-10T19:05:56.475Z,66.49
2017-09-10T19:08:24.842Z,65.91
2017-09-10T19:10:54.411Z,66.63
2017-09-10T19:13:22.920Z,66.48
2017-09-10T19:15:51.955Z,66.32
2017-09-10T19:18:21.056Z,66.23
2017-09-10T19:20:49.878Z,67.14
2017-09-10T19:23:18.279Z,67.01
2017-09-10T19:25:47.254Z,66.61
2017-09-10T19:28:16.547Z,66.99
2017-09-10T19:30:44.920Z,66.60
2017-09-10T19:33:13.547Z,66.68
2017-09-10T19:35:41.910Z,66.77
2017-09-10T19:38:10.294Z,67.00
2017-09-10T19:40:40.831Z,66.50
2017-09-10T19:43:10.464Z,66.76
2017-09-10T19:45:38.879Z,66.79
2017-09-10T19:48:07.675Z,66.80
2017-09-10T19:50:36.027Z,66.83
2017-09-10T19:53:04.369Z,67.18
2017-09-10T19:55:33.640Z,67.00
2017-09-10T19:58:02.021Z,66.54
2017-09-10T20:00:30.821Z,66.98
2017-09-10T20:02:59.505Z,66.75
2017-09-10T20:05:28.768Z,67.05
2017-09-10T20:07:57.284Z,66.62
2017-09-10T20:10:26.556Z,67.28
2017-09-10T20:12:55.955Z,67.18
2017-09-10T20:15:24.304Z,66.95
2017-09-10T20:17:53.169Z,66.57
2017-09-10T20:20:22.466Z,66.77
2017-09-10T20:22:50.842Z,67.68
2017-09-10T20:25:19.473Z,68.20
2017-09-10T20:27:47.796Z,67.76
2017-09-10T20:30:16.166Z,67.74
2017-09-10T20:32:45.088Z,67.36
2017-09-10T20:35:13.416Z,66.85
2017-09-10T20:37:42.561Z,67.13
2017-09-10T20:40:11.176Z,67.54
2017-09-10T20:42:40.376Z,67.70
2017-09-10T20:45:08.740Z,67.18
2017-09-10T20:47:37.470Z,68.05
2017-09-10T20:50:06.063Z,67.97
2017-09-10T20:52:35.266Z,68.12
2017-09-10T20:55:04.546Z,68.20
2017-09-10T20:57:33.906Z,67.92
2017-09-10T21:00:02.270Z,67.40
2017-09-10T21:02:31.129Z,67.94
2017-09-10T21:05:00.466Z,68.04
2017-09-10T21:07:28.817Z,67.67
2017-09-10T21:09:58.213Z,67.51
2017-09-10T21:12:27.549Z,67.59
2017-09-10T21:14:55.894Z,67.65
2017-09-10T21:17:25.152Z,68.04
2017-09-10T21:19:54.103Z,67.89
2017-09-10T21:22:22.704Z,67.55
2017-09-10T21:24:51.800Z,67.63
2017-09-10T21:27:21.067Z,67.58
2017-09-10T21:29:49.426Z,67.59
2017-09-10T21:32:18.984Z,67.35
2017-09-10T21:34:47.349Z,67.91
2017-09-10T21:37:15.663Z,67.70
2017-09-10T21:39:44.451Z,67.80
2017-09-10T21:42:12.828Z,67.27
2017-09-10T21:44:41.221Z,67.24
2017-09-10T21:47:10.221Z,67.61
2017-09-10T21:49:39.502Z,67.50
2017-09-10T21:52:08.660Z,67.38
2017-09-10T21:54:38.160Z,67.00
2017-09-10T21:57:07.346Z,67.52
2017-09-10T21:59:36.786Z,67.37
2017-09-10T22:02:06.671Z,67.19
2017-09-10T22:04:35.049Z,67.18
2017-09-10T22:07:04.170Z,67.21
2017-09-10T22:09:33.465Z,67.80
2017-09-10T22:12:01.949Z,67.41
2017-09-10T22:14:30.327Z,67.58
2017-09-10T22:16:59.057Z,68.51
2017-09-10T22:19:27.440Z,68.33
2017-09-10T22:21:55.820Z,68.48
2017-09-10T22:24:25.162Z,68.81
2017-09-10T22:26:53.494Z,68.63
2017-09-10T22:29:23.288Z,68.25
2017-09-10T22:31:54.876Z,68.34
2017-09-10T22:34:23.346Z,68.33
2017-09-10T22:36:51.749Z,68.70
2017-09-10T22:39:20.437Z,69.29
2017-09-10T22:41:50.209Z,68.80
2017-09-10T22:44:19.238Z,68.60
2017-09-10T22:46:48.264Z,68.95
2017-09-10T22:49:16.616Z,69.10
2017-09-10T22:51:45.710Z,69.17
2017-09-10T22:54:14.384Z,69.16
2017-09-10T22:56:43.723Z,69.00
2017-09-10T22:59:12.065Z,69.73
2017-09-10T23:01:40.668Z,69.65
2017-09-10T23:04:09.800Z,69.11
2017-09-10T23:06:38.126Z,68.91
2017-09-10T23:09:07.251Z,69.01
2017-09-10T23:11:37.039Z,69.33
2017-09-10T23:14:06.446Z,69.33
2017-09-10T23:16:35.162Z,68.70
2017-09-10T23:19:03.507Z,68.93
2017-09-10T23:21:31.893Z,68.59
2017-09-10T23:24:00.627Z,68.18
2017-09-10T23:26:28.984Z,67.94
2017-09-10T23:28:58.794Z,68.05
2017-09-10T23:31:27.889Z,67.37
2017-09-10T23:33:56.269Z,67.51
2017-09-10T23:36:24.817Z,67.24
2017-09-10T23:38:53.615Z,67.67
2017-09-10T23:41:23.428Z,67.74
2017-09-10T23:43:53.445Z,68.03
2017-09-10T23:46:23.689Z,68.01
2017-09-10T23:48:52.052Z,67.78
2017-09-10T23:51:20.587Z,67.56
2017-09-10T23:53:50.242Z,67.50
2017-09-10T23:56:18.613Z,67.67
2017-09-10T23:58:46.959Z,67.78
